Time;durP1;ratioP1;P1;durP2;ratioP2;P2;SDS_P1;SDS_P2;PMS_P1;PMS_P2;Temp;Humidity;BMP_temperature;BMP_pressure;BME280_temperature;BME280_humidity;BME280_pressure;Samples;Min_cycle;Max_cycle;Signal;HPM_P1;HPM_P2
2021/12/03 00:00:31;;;;;;;28.58;15.77;;;;;;;;;;4934095;29;20122;-68
2021/12/03 00:02:57;;;;;;;28.40;17.33;;;;;;;;;;4932200;29;20480;-67
2021/12/03 00:05:23;;;;;;;33.83;15.82;;;;;;;;;;4940961;29;20035;-70
2021/12/03 00:07:50;;;;;;;28.60;16.08;;;;;;;;;;4950733;28;20039;-70
2021/12/03 00:10:20;;;;;;;30.42;16.52;;;;;;;;;;4941388;28;20034;-69
2021/12/03 00:12:46;;;;;;;24.38;15.50;;;;;;;;;;4932401;29;20056;-73
2021/12/03 00:15:12;;;;;;;28.25;15.65;;;;;;;;;;4932298;29;20555;-70
2021/12/03 00:17:38;;;;;;;24.05;13.43;;;;;;;;;;4936312;29;20028;-70
2021/12/03 00:20:07;;;;;;;27.05;14.48;;;;;;;;;;4949923;28;20031;-68
2021/12/03 00:22:33;;;;;;;21.67;12.90;;;;;;;;;;4951978;28;20066;-69
2021/12/03 00:24:59;;;;;;;22.00;12.68;;;;;;;;;;4951271;28;20074;-70
2021/12/03 00:27:25;;;;;;;20.05;12.85;;;;;;;;;;4933924;29;20043;-67
2021/12/03 00:29:51;;;;;;;20.00;11.32;;;;;;;;;;4943395;29;20027;-68
2021/12/03 00:32:17;;;;;;;21.02;12.20;;;;;;;;;;4933545;29;20035;-71
2021/12/03 00:34:43;;;;;;;20.40;11.50;;;;;;;;;;4949926;29;20031;-70
2021/12/03 00:37:09;;;;;;;22.02;12.68;;;;;;;;;;4944190;28;20039;-72
2021/12/03 00:39:35;;;;;;;23.45;12.27;;;;;;;;;;4947102;29;20023;-71
2021/12/03 00:42:03;;;;;;;20.00;12.02;;;;;;;;;;4951816;28;20031;-70
2021/12/03 00:44:30;;;;;;;24.92;12.63;;;;;;;;;;4981774;28;20038;-68
2021/12/03 00:46:58;;;;;;;25.25;13.30;;;;;;;;;;4951978;28;20042;-69
2021/12/03 00:49:25;;;;;;;26.42;13.68;;;;;;;;;;4952841;28;20027;-70
2021/12/03 00:51:51;;;;;;;25.83;13.65;;;;;;;;;;4951924;28;20031;-69
2021/12/03 00:54:17;;;;;;;32.60;13.23;;;;;;;;;;4953770;28;20438;-69
2021/12/03 00:56:43;;;;;;;29.52;14.00;;;;;;;;;;4953091;28;20027;-69
2021/12/03 00:59:09;;;;;;;24.30;12.10;;;;;;;;;;4950073;28;20050;-69
2021/12/03 01:01:38;;;;;;;18.00;11.15;;;;;;;;;;4949418;28;20031;-68
2021/12/03 01:04:05;;;;;;;23.65;12.30;;;;;;;;;;4935156;29;20062;-67
2021/12/03 01:06:32;;;;;;;18.73;10.80;;;;;;;;;;4934922;29;20043;-68
2021/12/03 01:08:57;;;;;;;17.33;11.10;;;;;;;;;;4936112;29;20075;-69
2021/12/03 01:11:23;;;;;;;19.02;10.60;;;;;;;;;;4936433;29;20024;-70
2021/12/03 01:13:49;;;;;;;24.92;12.65;;;;;;;;;;4935763;29;20089;-66
2021/12/03 01:16:16;;;;;;;21.58;10.90;;;;;;;;;;4954416;29;20043;-67
2021/12/03 01:18:45;;;;;;;26.27;11.85;;;;;;;;;;4955631;28;20031;-69
2021/12/03 01:21:11;;;;;;;21.38;12.27;;;;;;;;;;4946425;28;20055;-70
2021/12/03 01:23:38;;;;;;;22.58;12.32;;;;;;;;;;4946354;29;20031;-69
2021/12/03 01:26:04;;;;;;;20.27;12.25;;;;;;;;;;4947715;29;20495;-72
2021/12/03 01:28:30;;;;;;;22.70;12.38;;;;;;;;;;4945503;29;20075;-67
2021/12/03 01:30:57;;;;;;;22.70;12.10;;;;;;;;;;4953571;28;20035;-69
2021/12/03 01:33:23;;;;;;;19.05;10.75;;;;;;;;;;4940742;28;20032;-68
2021/12/03 01:35:50;;;;;;;16.42;10.02;;;;;;;;;;4935912;29;20095;-70
2021/12/03 01:38:15;;;;;;;20.20;9.55;;;;;;;;;;4949506;28;20054;-67
2021/12/03 01:40:42;;;;;;;15.13;8.98;;;;;;;;;;4955359;28;20435;-67
2021/12/03 01:43:10;;;;;;;25.90;11.75;;;;;;;;;;4985282;28;20057;-67
2021/12/03 01:45:39;;;;;;;19.30;10.38;;;;;;;;;;4953921;28;20086;-70
2021/12/03 01:48:05;;;;;;;20.42;9.80;;;;;;;;;;4950329;28;20042;-70
2021/12/03 01:50:37;;;;;;;18.10;10.55;;;;;;;;;;4954425;28;20027;-70
2021/12/03 01:53:04;;;;;;;19.10;11.00;;;;;;;;;;4965308;28;20118;-69
2021/12/03 01:55:31;;;;;;;17.95;10.73;;;;;;;;;;4934877;29;20038;-68
2021/12/03 01:57:57;;;;;;;18.42;10.88;;;;;;;;;;4935915;29;20150;-67
2021/12/03 02:00:31;;;;;;;17.63;11.25;;;;;;;;;;4949573;28;20047;-68
2021/12/03 02:02:57;;;;;;;17.65;11.25;;;;;;;;;;4970890;28;20070;-71
2021/12/03 02:05:23;;;;;;;20.77;10.23;;;;;;;;;;4955196;28;20122;-68
2021/12/03 02:07:50;;;;;;;20.05;9.73;;;;;;;;;;4938323;28;20559;-68
2021/12/03 02:10:18;;;;;;;19.27;11.15;;;;;;;;;;4948822;28;20036;-71
2021/12/03 02:12:45;;;;;;;15.57;9.38;;;;;;;;;;4937118;29;20031;-68
2021/12/03 02:15:10;;;;;;;21.63;9.35;;;;;;;;;;4954323;28;20032;-70
2021/12/03 02:17:37;;;;;;;14.60;8.50;;;;;;;;;;4954243;28;20038;-68
2021/12/03 02:20:06;;;;;;;14.27;8.75;;;;;;;;;;4954251;28;20498;-67
2021/12/03 02:22:31;;;;;;;17.20;8.40;;;;;;;;;;4954403;29;20023;-67
2021/12/03 02:24:57;;;;;;;15.30;8.43;;;;;;;;;;4943204;28;20125;-66
2021/12/03 02:27:23;;;;;;;13.07;7.80;;;;;;;;;;4953360;28;20577;-70
2021/12/03 02:29:49;;;;;;;13.85;8.05;;;;;;;;;;4953342;28;20035;-69
2021/12/03 02:32:15;;;;;;;12.85;7.95;;;;;;;;;;4957606;28;20101;-68
2021/12/03 02:34:41;;;;;;;14.82;8.25;;;;;;;;;;4950089;28;20074;-68
2021/12/03 02:37:07;;;;;;;14.02;8.30;;;;;;;;;;4948722;29;20027;-69
2021/12/03 02:39:32;;;;;;;16.02;8.35;;;;;;;;;;4953752;29;20031;-69
2021/12/03 02:41:58;;;;;;;15.75;8.68;;;;;;;;;;4952981;28;20031;-72
2021/12/03 02:44:24;;;;;;;14.77;8.90;;;;;;;;;;4953988;28;20042;-72
2021/12/03 02:46:50;;;;;;;13.85;8.57;;;;;;;;;;4941851;28;20075;-72
2021/12/03 02:49:16;;;;;;;14.38;8.32;;;;;;;;;;4948597;29;20442;-71
2021/12/03 02:51:42;;;;;;;12.93;7.88;;;;;;;;;;4935519;28;20031;-72
2021/12/03 02:54:08;;;;;;;13.13;7.95;;;;;;;;;;4949458;28;20482;-72
2021/12/03 02:56:34;;;;;;;18.55;8.25;;;;;;;;;;4934845;29;20076;-71
2021/12/03 02:59:00;;;;;;;19.05;10.00;;;;;;;;;;4949275;29;20055;-68
2021/12/03 03:01:26;;;;;;;13.95;8.80;;;;;;;;;;4934838;29;20135;-67
2021/12/03 03:03:52;;;;;;;16.90;10.43;;;;;;;;;;4935085;29;20089;-66
2021/12/03 03:06:18;;;;;;;23.20;12.65;;;;;;;;;;4939499;29;20106;-66
2021/12/03 03:08:44;;;;;;;22.58;12.20;;;;;;;;;;4961685;28;20041;-71
2021/12/03 03:11:10;;;;;;;20.75;12.65;;;;;;;;;;4951570;28;20050;-68
2021/12/03 03:13:37;;;;;;;26.27;13.90;;;;;;;;;;4939832;28;20024;-69
2021/12/03 03:16:04;;;;;;;26.63;13.25;;;;;;;;;;4940376;29;20517;-66
2021/12/03 03:18:30;;;;;;;21.38;12.40;;;;;;;;;;4948690;28;20495;-66
2021/12/03 03:20:59;;;;;;;26.58;12.60;;;;;;;;;;4933869;29;20036;-67
2021/12/03 03:23:25;;;;;;;25.48;12.70;;;;;;;;;;4950700;29;20019;-67
2021/12/03 03:25:51;;;;;;;18.20;10.77;;;;;;;;;;4933253;29;20040;-67
2021/12/03 03:28:21;;;;;;;21.42;10.75;;;;;;;;;;4947670;29;20047;-68
2021/12/03 03:30:48;;;;;;;15.48;7.57;;;;;;;;;;4952050;28;20559;-68
2021/12/03 03:33:16;;;;;;;11.30;7.30;;;;;;;;;;4951584;28;20106;-67
2021/12/03 03:35:43;;;;;;;12.82;7.40;;;;;;;;;;4955882;28;20569;-71
2021/12/03 03:38:09;;;;;;;19.15;8.60;;;;;;;;;;4958341;28;20027;-68
2021/12/03 03:40:35;;;;;;;22.17;8.60;;;;;;;;;;4936881;28;20083;-71
2021/12/03 03:43:04;;;;;;;14.27;7.90;;;;;;;;;;4946778;28;20038;-68
2021/12/03 03:45:31;;;;;;;17.73;9.02;;;;;;;;;;4943385;29;20042;-72
2021/12/03 03:47:56;;;;;;;13.77;8.75;;;;;;;;;;4938167;28;20115;-67
2021/12/03 03:50:23;;;;;;;17.83;9.95;;;;;;;;;;4943407;28;20598;-67
2021/12/03 03:52:52;;;;;;;26.48;11.93;;;;;;;;;;4946504;28;20468;-69
2021/12/03 03:55:19;;;;;;;17.40;10.30;;;;;;;;;;4943453;29;20086;-67
2021/12/03 03:57:47;;;;;;;21.73;10.90;;;;;;;;;;4936869;28;20035;-68
2021/12/03 04:00:24;;;;;;;16.25;9.38;;;;;;;;;;4951707;28;20035;-69
2021/12/03 04:02:50;;;;;;;16.38;9.95;;;;;;;;;;4948941;29;20086;-68
2021/12/03 04:05:16;;;;;;;16.00;8.70;;;;;;;;;;4939411;28;20342;-71
2021/12/03 04:07:42;;;;;;;16.92;9.80;;;;;;;;;;4940686;29;20043;-68
2021/12/03 04:10:08;;;;;;;23.50;9.60;;;;;;;;;;4948374;28;20078;-70
2021/12/03 04:12:35;;;;;;;26.10;9.52;;;;;;;;;;4940681;29;20118;-70
2021/12/03 04:15:01;;;;;;;19.05;9.30;;;;;;;;;;4949198;28;20038;-70
2021/12/03 04:17:27;;;;;;;19.98;9.85;;;;;;;;;;4940221;29;20035;-68
2021/12/03 04:19:53;;;;;;;15.73;8.00;;;;;;;;;;4949397;28;20359;-67
2021/12/03 04:22:23;;;;;;;32.50;12.77;;;;;;;;;;4944100;29;20032;-70
2021/12/03 04:24:51;;;;;;;31.73;12.00;;;;;;;;;;4950996;28;20119;-69
2021/12/03 04:27:17;;;;;;;41.65;10.57;;;;;;;;;;4944551;28;20051;-70
2021/12/03 04:29:43;;;;;;;20.95;9.98;;;;;;;;;;4938850;29;20036;-67
2021/12/03 04:32:09;;;;;;;23.38;8.82;;;;;;;;;;4936986;29;20146;-69
2021/12/03 04:34:36;;;;;;;23.85;10.30;;;;;;;;;;4968777;28;20118;-69
2021/12/03 04:37:02;;;;;;;21.02;10.57;;;;;;;;;;4969929;28;20039;-71
2021/12/03 04:39:28;;;;;;;18.25;9.25;;;;;;;;;;4957451;28;20043;-70
2021/12/03 04:41:54;;;;;;;15.70;8.02;;;;;;;;;;4937548;28;20039;-69
2021/12/03 04:44:20;;;;;;;23.13;9.52;;;;;;;;;;4949206;29;20046;-66
2021/12/03 04:46:46;;;;;;;20.33;9.25;;;;;;;;;;4971008;28;20027;-71
2021/12/03 04:49:11;;;;;;;23.02;8.50;;;;;;;;;;4947585;28;20655;-68
2021/12/03 04:51:37;;;;;;;24.20;10.02;;;;;;;;;;4954858;28;20063;-68
2021/12/03 04:54:03;;;;;;;27.00;10.38;;;;;;;;;;4948149;28;20036;-66
2021/12/03 04:56:29;;;;;;;27.95;13.07;;;;;;;;;;4946842;29;20512;-70
2021/12/03 04:58:55;;;;;;;31.10;11.85;;;;;;;;;;4953284;28;20118;-70
2021/12/03 05:01:20;;;;;;;33.63;13.82;;;;;;;;;;4942939;29;20023;-69
2021/12/03 05:03:46;;;;;;;34.83;11.32;;;;;;;;;;4953073;28;20374;-69
2021/12/03 05:06:16;;;;;;;18.23;10.52;;;;;;;;;;4944021;29;20075;-68
2021/12/03 05:08:42;;;;;;;19.63;10.77;;;;;;;;;;4960001;28;20039;-68
2021/12/03 05:11:09;;;;;;;23.15;11.85;;;;;;;;;;4937420;29;20024;-68
2021/12/03 05:13:36;;;;;;;34.17;15.40;;;;;;;;;;4937215;29;20106;-70
2021/12/03 05:16:04;;;;;;;36.67;19.50;;;;;;;;;;4967638;28;20060;-67
2021/12/03 05:18:30;;;;;;;40.60;19.73;;;;;;;;;;4936949;29;20036;-67
2021/12/03 05:20:59;;;;;;;43.45;19.35;;;;;;;;;;4961674;28;20105;-74
2021/12/03 05:23:27;;;;;;;44.63;17.90;;;;;;;;;;4941783;28;20059;-72
2021/12/03 05:25:54;;;;;;;44.28;17.85;;;;;;;;;;4940993;29;20023;-71
2021/12/03 05:28:20;;;;;;;36.05;16.90;;;;;;;;;;4940766;28;20487;-71
2021/12/03 05:30:46;;;;;;;32.97;15.50;;;;;;;;;;4945966;29;20058;-71
2021/12/03 05:33:13;;;;;;;38.03;16.92;;;;;;;;;;4949387;28;20036;-71
2021/12/03 05:35:39;;;;;;;57.00;19.88;;;;;;;;;;4937150;29;20082;-71
2021/12/03 05:38:05;;;;;;;43.35;19.80;;;;;;;;;;4954782;28;20106;-71
2021/12/03 05:40:31;;;;;;;58.92;20.05;;;;;;;;;;4952148;28;20042;-71
2021/12/03 05:42:58;;;;;;;41.58;17.48;;;;;;;;;;4946079;28;20036;-71
2021/12/03 05:45:26;;;;;;;33.22;17.60;;;;;;;;;;4943572;29;20027;-72
2021/12/03 05:47:53;;;;;;;36.92;18.05;;;;;;;;;;4954873;28;20078;-71
2021/12/03 05:50:19;;;;;;;34.22;18.45;;;;;;;;;;4935466;29;20042;-72
2021/12/03 05:52:47;;;;;;;33.95;17.83;;;;;;;;;;4939964;29;20479;-70
2021/12/03 05:55:14;;;;;;;35.50;17.42;;;;;;;;;;4946811;28;20126;-72
2021/12/03 05:57:41;;;;;;;40.17;18.05;;;;;;;;;;4943315;29;20075;-72
2021/12/03 06:00:19;;;;;;;42.88;19.40;;;;;;;;;;4945915;28;20035;-70
2021/12/03 06:02:45;;;;;;;38.33;18.88;;;;;;;;;;4949829;29;20027;-71
2021/12/03 06:05:11;;;;;;;55.28;22.38;;;;;;;;;;4955525;28;20027;-74
2021/12/03 06:07:37;;;;;;;44.40;19.75;;;;;;;;;;4954465;28;20039;-74
2021/12/03 06:10:04;;;;;;;45.85;21.10;;;;;;;;;;4945584;28;20110;-71
2021/12/03 06:12:30;;;;;;;51.85;22.25;;;;;;;;;;4939402;28;20389;-72
2021/12/03 06:14:55;;;;;;;52.63;23.00;;;;;;;;;;4947893;28;20119;-70
2021/12/03 06:17:23;;;;;;;50.40;20.50;;;;;;;;;;4938876;28;20110;-72
2021/12/03 06:19:48;;;;;;;38.08;18.85;;;;;;;;;;4954538;28;20114;-72
2021/12/03 06:22:14;;;;;;;33.13;15.43;;;;;;;;;;4936371;29;20032;-70
2021/12/03 06:24:40;;;;;;;41.00;17.08;;;;;;;;;;4936183;29;20101;-71
2021/12/03 06:27:06;;;;;;;36.03;17.52;;;;;;;;;;4956897;28;20043;-70
2021/12/03 06:29:32;;;;;;;47.33;17.40;;;;;;;;;;4953469;28;20066;-70
2021/12/03 06:31:58;;;;;;;38.13;17.00;;;;;;;;;;4954220;28;20031;-72
2021/12/03 06:34:24;;;;;;;38.33;17.38;;;;;;;;;;4938537;28;20075;-72
2021/12/03 06:36:50;;;;;;;51.33;18.35;;;;;;;;;;4954124;28;20411;-69
2021/12/03 06:39:15;;;;;;;70.15;18.55;;;;;;;;;;4954451;28;20034;-71
2021/12/03 06:41:41;;;;;;;50.17;16.40;;;;;;;;;;4940435;28;20060;-72
2021/12/03 06:44:08;;;;;;;52.20;18.17;;;;;;;;;;4944004;29;20031;-71
2021/12/03 06:46:37;;;;;;;35.42;15.60;;;;;;;;;;4949019;28;20474;-70
2021/12/03 06:49:03;;;;;;;43.20;16.05;;;;;;;;;;4935146;29;20098;-72
2021/12/03 06:51:31;;;;;;;37.63;17.13;;;;;;;;;;4949479;28;20035;-75
2021/12/03 06:54:00;;;;;;;31.83;17.30;;;;;;;;;;4952220;28;20085;-71
2021/12/03 06:56:33;;;;;;;33.03;17.33;;;;;;;;;;4968572;28;20392;-71
2021/12/03 06:58:59;;;;;;;30.23;13.57;;;;;;;;;;4937435;28;20035;-73
2021/12/03 07:01:25;;;;;;;22.70;14.45;;;;;;;;;;4934787;29;20629;-73
2021/12/03 07:03:52;;;;;;;23.67;13.32;;;;;;;;;;4934023;29;20044;-71
2021/12/03 07:06:17;;;;;;;38.00;16.42;;;;;;;;;;4949604;29;20478;-74
2021/12/03 07:08:43;;;;;;;47.42;16.70;;;;;;;;;;4949676;28;20091;-75
2021/12/03 07:11:09;;;;;;;32.95;16.75;;;;;;;;;;4938099;29;20030;-73
2021/12/03 07:13:35;;;;;;;35.25;19.70;;;;;;;;;;4941361;29;20119;-71
2021/12/03 07:16:04;;;;;;;33.45;17.65;;;;;;;;;;4947077;28;20035;-70
2021/12/03 07:18:30;;;;;;;30.13;14.00;;;;;;;;;;4945309;28;20031;-74
2021/12/03 07:20:56;;;;;;;33.33;14.38;;;;;;;;;;4937933;29;20034;-74
2021/12/03 07:23:22;;;;;;;39.45;19.98;;;;;;;;;;4945980;28;20083;-73
2021/12/03 07:25:47;;;;;;;42.35;19.60;;;;;;;;;;4945504;29;20443;-74
2021/12/03 07:28:16;;;;;;;31.58;16.30;;;;;;;;;;4962640;28;20047;-74
2021/12/03 07:30:42;;;;;;;35.92;16.30;;;;;;;;;;4941992;28;20503;-74
2021/12/03 07:33:11;;;;;;;32.67;15.98;;;;;;;;;;4943352;29;20059;-73
2021/12/03 07:35:37;;;;;;;33.85;16.70;;;;;;;;;;4941836;29;20392;-74
2021/12/03 07:38:03;;;;;;;31.08;15.20;;;;;;;;;;4942179;28;20039;-75
2021/12/03 07:40:29;;;;;;;33.30;14.43;;;;;;;;;;4952319;28;20545;-75
2021/12/03 07:42:54;;;;;;;18.80;10.10;;;;;;;;;;4935402;28;20032;-72
2021/12/03 07:45:21;;;;;;;19.85;10.63;;;;;;;;;;4947010;29;20467;-73
2021/12/03 07:47:47;;;;;;;20.02;10.40;;;;;;;;;;4944168;28;20038;-70
2021/12/03 07:50:14;;;;;;;34.10;13.93;;;;;;;;;;4951635;28;20040;-74
2021/12/03 07:52:39;;;;;;;22.25;11.95;;;;;;;;;;4952182;28;20023;-71
2021/12/03 07:55:06;;;;;;;32.70;13.55;;;;;;;;;;4949163;28;20131;-71
2021/12/03 07:57:32;;;;;;;19.27;10.05;;;;;;;;;;4952658;28;20027;-74
2021/12/03 07:59:59;;;;;;;19.52;10.75;;;;;;;;;;4947796;28;20106;-72
2021/12/03 08:02:26;;;;;;;15.90;9.75;;;;;;;;;;4958012;28;20482;-73
2021/12/03 08:04:52;;;;;;;17.90;9.27;;;;;;;;;;4946949;28;20032;-72
2021/12/03 08:07:18;;;;;;;29.52;11.93;;;;;;;;;;4938188;29;20027;-70
2021/12/03 08:09:44;;;;;;;23.80;11.48;;;;;;;;;;4982618;28;20051;-69
2021/12/03 08:12:10;;;;;;;24.25;11.20;;;;;;;;;;4953340;29;20043;-74
2021/12/03 08:14:36;;;;;;;25.35;10.70;;;;;;;;;;4966562;28;20482;-71
2021/12/03 08:17:02;;;;;;;28.75;12.60;;;;;;;;;;4950136;29;20359;-72
2021/12/03 08:19:28;;;;;;;28.52;11.40;;;;;;;;;;4955119;29;20034;-73
2021/12/03 08:21:53;;;;;;;18.45;8.52;;;;;;;;;;4973098;28;20094;-72
2021/12/03 08:24:19;;;;;;;24.85;11.80;;;;;;;;;;4960612;28;20041;-72
2021/12/03 08:26:45;;;;;;;22.98;11.32;;;;;;;;;;4955356;28;20027;-72
2021/12/03 08:29:11;;;;;;;22.75;10.52;;;;;;;;;;4972010;28;20085;-72
2021/12/03 08:31:38;;;;;;;21.13;11.45;;;;;;;;;;4973730;28;20039;-72
2021/12/03 08:34:04;;;;;;;22.60;11.13;;;;;;;;;;4976472;28;20066;-73
2021/12/03 08:36:30;;;;;;;23.80;11.95;;;;;;;;;;4943843;28;20724;-74
2021/12/03 08:38:56;;;;;;;18.90;10.18;;;;;;;;;;4950229;28;20039;-71
2021/12/03 08:41:22;;;;;;;17.27;9.32;;;;;;;;;;4955523;28;20023;-72
2021/12/03 08:43:49;;;;;;;13.98;8.38;;;;;;;;;;4953697;28;20047;-70
2021/12/03 08:46:35;;;;;;;22.42;10.52;;;;;;;;;;4952153;28;20024;-68
2021/12/03 08:49:09;;;;;;;14.77;9.10;;;;;;;;;;4953366;28;20079;-71
2021/12/03 08:57:06;;;;;;;23.33;10.55;;;;;;;;;;4974874;28;20038;-73
2021/12/03 08:59:32;;;;;;;24.80;11.02;;;;;;;;;;4973675;28;20385;-74
2021/12/03 09:01:58;;;;;;;35.45;12.50;;;;;;;;;;4947614;29;20031;-75
2021/12/03 09:04:24;;;;;;;29.42;12.82;;;;;;;;;;4937458;29;20472;-75
2021/12/03 09:06:50;;;;;;;25.20;10.73;;;;;;;;;;4963235;28;20053;-75
2021/12/03 09:09:15;;;;;;;17.13;8.90;;;;;;;;;;4966054;28;20039;-74
2021/12/03 09:11:42;;;;;;;16.83;9.52;;;;;;;;;;4950362;28;20026;-69
2021/12/03 09:14:29;;;;;;;22.05;10.05;;;;;;;;;;4951805;28;20422;-74
2021/12/03 09:20:28;;;;;;;15.95;9.40;;;;;;;;;;4955883;28;20131;-73
2021/12/03 09:24:55;;;;;;;19.48;9.75;;;;;;;;;;4952971;28;20030;-71
2021/12/03 09:27:21;;;;;;;18.00;11.27;;;;;;;;;;4935515;29;20499;-69
2021/12/03 09:29:48;;;;;;;27.58;11.35;;;;;;;;;;4950558;28;20038;-75
2021/12/03 09:32:21;;;;;;;29.90;14.88;;;;;;;;;;4936289;29;20039;-74
2021/12/03 09:34:47;;;;;;;22.65;15.82;;;;;;;;;;4953340;28;20546;-73
2021/12/03 09:37:13;;;;;;;25.33;14.50;;;;;;;;;;4945058;28;20119;-73
2021/12/03 09:39:41;;;;;;;23.42;15.48;;;;;;;;;;4947835;28;20111;-73
2021/12/03 09:42:07;;;;;;;28.00;15.52;;;;;;;;;;4944771;29;20226;-74
2021/12/03 09:44:38;;;;;;;29.10;14.82;;;;;;;;;;4954389;28;20114;-74
2021/12/03 09:47:05;;;;;;;31.55;16.13;;;;;;;;;;4962386;28;20042;-73
2021/12/03 09:52:09;;;;;;;32.42;18.42;;;;;;;;;;4944211;29;20321;-76
2021/12/03 09:57:13;;;;;;;25.95;13.73;;;;;;;;;;4952677;28;20028;-73
2021/12/03 10:07:12;;;;;;;21.88;11.68;;;;;;;;;;4934811;29;20048;-69
2021/12/03 10:09:31;;;;;;;19.90;11.52;;;;;;;;;;4938421;29;20114;-73
2021/12/03 10:17:09;;;;;;;21.05;12.55;;;;;;;;;;4955900;28;20091;-72
2021/12/03 10:19:47;;;;;;;31.98;13.32;;;;;;;;;;4935194;29;20515;-73
2021/12/03 11:16:44;;;;;;;11.70;5.93;;;;;;;;;;4941146;28;20042;-72
2021/12/03 11:20:12;;;;;;;14.23;6.55;;;;;;;;;;4945166;29;20098;-73
2021/12/03 11:30:24;;;;;;;9.93;5.65;;;;;;;;;;4938483;28;20214;-73
2021/12/03 12:27:12;;;;;;;20.80;9.00;;;;;;;;;;4935487;29;20598;-73
2021/12/03 12:58:31;;;;;;;21.10;10.70;;;;;;;;;;4953310;28;20138;-71
2021/12/03 13:22:48;;;;;;;17.92;9.02;;;;;;;;;;4962855;28;20027;-74
2021/12/03 13:58:18;;;;;;;20.25;11.02;;;;;;;;;;4952102;29;20449;-74
2021/12/03 14:51:27;;;;;;;14.25;7.30;;;;;;;;;;4943847;28;20376;-68
2021/12/03 14:57:06;;;;;;;;;;;;;;;;;;4952836;28;20031;-75
2021/12/03 14:59:33;;;;;;;16.23;7.47;;;;;;;;;;4956782;28;19925;-73
2021/12/03 15:03:07;;;;;;;13.00;6.50;;;;;;;;;;4944804;28;20051;-71
2021/12/03 15:05:19;;;;;;;17.52;7.95;;;;;;;;;;4933561;29;20067;-76
2021/12/03 15:07:46;;;;;;;20.95;8.25;;;;;;;;;;4948503;28;20115;-76
2021/12/03 15:18:47;;;;;;;15.93;8.80;;;;;;;;;;4974376;28;20039;-77
2021/12/03 15:26:36;;;;;;;15.82;8.50;;;;;;;;;;4944562;28;20501;-71
2021/12/03 15:32:15;;;;;;;19.58;9.10;;;;;;;;;;4953187;28;20039;-72
2021/12/03 15:54:12;;;;;;;16.80;8.07;;;;;;;;;;4973681;28;20092;-68
2021/12/03 16:03:29;;;;;;;26.20;9.63;;;;;;;;;;4973758;28;20062;-67
2021/12/03 16:06:45;;;;;;;20.60;9.32;;;;;;;;;;4973082;28;20054;-68
2021/12/03 16:20:07;;;;;;;23.10;10.13;;;;;;;;;;4952738;28;20038;-67
2021/12/03 16:51:54;;;;;;;14.45;6.57;;;;;;;;;;4955330;28;20039;-68
2021/12/03 16:55:04;;;;;;;16.73;7.47;;;;;;;;;;4955348;29;20035;-67
2021/12/03 16:57:11;;;;;;;21.77;9.18;;;;;;;;;;4959534;28;20059;-65
2021/12/03 16:59:39;;;;;;;17.45;8.30;;;;;;;;;;4956289;29;20019;-66
2021/12/03 17:02:09;;;;;;;17.55;9.32;;;;;;;;;;4956753;28;20129;-66
2021/12/03 17:15:02;;;;;;;16.60;8.20;;;;;;;;;;4956497;28;20060;-66
2021/12/03 17:49:53;;;;;;;14.82;7.43;;;;;;;;;;4955580;29;20126;-67
2021/12/03 18:00:37;;;;;;;13.15;6.88;;;;;;;;;;4949640;28;20035;-68
2021/12/03 18:03:25;;;;;;;11.93;6.22;;;;;;;;;;4958599;28;20043;-64
2021/12/03 18:51:37;;;;;;;8.52;4.68;;;;;;;;;;4954300;28;20031;-66
2021/12/03 18:56:49;;;;;;;19.08;10.30;;;;;;;;;;4953560;28;20039;-67
2021/12/03 18:59:15;;;;;;;32.55;18.85;;;;;;;;;;4954061;28;20027;-65
2021/12/03 19:01:41;;;;;;;31.15;18.42;;;;;;;;;;4953077;28;20054;-69
2021/12/03 19:09:33;;;;;;;34.95;18.35;;;;;;;;;;4944585;28;20035;-70
2021/12/03 19:12:08;;;;;;;25.65;14.20;;;;;;;;;;4952315;28;20039;-65
2021/12/03 19:14:39;;;;;;;11.68;7.32;;;;;;;;;;4950386;28;20519;-71
2021/12/03 19:17:08;;;;;;;14.48;7.63;;;;;;;;;;4951972;28;20031;-70
2021/12/03 19:19:41;;;;;;;11.40;7.55;;;;;;;;;;4953003;28;20027;-70
2021/12/03 19:22:08;;;;;;;10.15;5.53;;;;;;;;;;4969309;28;20054;-71
2021/12/03 19:24:34;;;;;;;11.30;5.25;;;;;;;;;;4980941;28;20385;-67
2021/12/03 19:27:00;;;;;;;10.85;5.80;;;;;;;;;;4976376;28;20039;-68
2021/12/03 19:29:26;;;;;;;12.18;6.22;;;;;;;;;;4977936;28;20038;-68
2021/12/03 19:31:52;;;;;;;11.13;5.53;;;;;;;;;;4977041;28;20039;-65
2021/12/03 19:34:25;;;;;;;16.23;9.35;;;;;;;;;;4980629;28;20034;-65
2021/12/03 19:36:53;;;;;;;14.00;7.93;;;;;;;;;;4980848;28;20039;-72
2021/12/03 19:39:20;;;;;;;12.77;5.50;;;;;;;;;;4978289;28;20489;-66
2021/12/03 19:44:30;;;;;;;13.90;7.30;;;;;;;;;;4979391;28;20363;-66
2021/12/03 19:46:56;;;;;;;13.90;8.35;;;;;;;;;;4978703;28;20031;-64
2021/12/03 19:51:58;;;;;;;12.90;6.95;;;;;;;;;;4972529;28;20043;-67
2021/12/03 19:54:24;;;;;;;15.32;8.65;;;;;;;;;;4970922;28;20077;-66
2021/12/03 19:56:51;;;;;;;18.58;11.80;;;;;;;;;;4969588;28;20101;-65
2021/12/03 19:59:18;;;;;;;20.30;11.80;;;;;;;;;;4971816;28;20082;-67
2021/12/03 20:01:45;;;;;;;20.42;12.45;;;;;;;;;;4971944;28;20027;-66
2021/12/03 20:04:13;;;;;;;26.50;14.20;;;;;;;;;;4972707;28;20031;-65
2021/12/03 20:06:44;;;;;;;21.25;13.02;;;;;;;;;;4971553;28;20451;-66
2021/12/03 20:09:25;;;;;;;25.95;13.95;;;;;;;;;;4972854;28;20054;-67
2021/12/03 20:11:54;;;;;;;24.83;13.98;;;;;;;;;;4972067;28;20122;-68
2021/12/03 20:14:21;;;;;;;23.10;13.82;;;;;;;;;;4971047;28;20030;-66
2021/12/03 20:16:54;;;;;;;20.20;11.25;;;;;;;;;;4963764;28;20031;-66
2021/12/03 20:21:57;;;;;;;19.48;11.05;;;;;;;;;;4966245;28;20085;-67
2021/12/03 20:32:15;;;;;;;20.42;12.68;;;;;;;;;;4963942;28;20042;-65
2021/12/03 20:37:20;;;;;;;24.88;13.55;;;;;;;;;;4969085;28;20410;-65
2021/12/03 20:39:48;;;;;;;24.05;13.85;;;;;;;;;;4961204;28;20034;-64
2021/12/03 20:53:13;;;;;;;17.30;9.77;;;;;;;;;;4952437;29;20039;-64
2021/12/03 21:09:12;;;;;;;13.05;6.95;;;;;;;;;;4963304;28;20031;-65
2021/12/03 21:11:43;;;;;;;10.75;6.95;;;;;;;;;;4967451;28;20035;-71
2021/12/03 21:14:15;;;;;;;9.18;5.13;;;;;;;;;;4974988;28;20063;-65
2021/12/03 21:22:07;;;;;;;10.18;5.80;;;;;;;;;;4968726;28;20482;-69
2021/12/03 21:24:36;;;;;;;18.90;10.52;;;;;;;;;;4974983;28;20030;-70
2021/12/03 21:27:07;;;;;;;21.30;10.00;;;;;;;;;;4985086;28;20042;-68
2021/12/03 21:32:17;;;;;;;15.48;8.88;;;;;;;;;;4975238;28;20035;-72
2021/12/03 21:42:40;;;;;;;12.70;5.80;;;;;;;;;;4975261;28;20041;-68
2021/12/03 21:45:07;;;;;;;10.95;5.60;;;;;;;;;;4974730;28;20035;-72
2021/12/03 21:47:33;;;;;;;8.57;5.53;;;;;;;;;;4975115;28;20035;-69
2021/12/03 21:49:59;;;;;;;11.73;7.15;;;;;;;;;;4974530;28;20035;-68
2021/12/03 21:52:26;;;;;;;14.55;8.38;;;;;;;;;;4968660;28;20118;-64
2021/12/03 21:54:52;;;;;;;12.02;7.53;;;;;;;;;;4963907;28;20031;-66
2021/12/03 21:57:18;;;;;;;17.13;8.70;;;;;;;;;;4960193;28;20415;-64
2021/12/03 21:59:45;;;;;;;14.43;8.95;;;;;;;;;;4962582;28;20063;-64
2021/12/03 22:02:11;;;;;;;13.43;8.55;;;;;;;;;;4955210;28;20050;-64
2021/12/03 22:04:36;;;;;;;17.15;11.50;;;;;;;;;;4955821;28;20041;-68
2021/12/03 22:07:07;;;;;;;15.55;10.80;;;;;;;;;;4955175;28;20019;-73
2021/12/03 22:09:33;;;;;;;13.90;10.32;;;;;;;;;;4955945;28;20043;-67
2021/12/03 22:11:58;;;;;;;22.70;12.98;;;;;;;;;;4974422;28;20030;-67
2021/12/03 22:14:26;;;;;;;20.15;13.75;;;;;;;;;;4972939;28;20525;-67
2021/12/03 22:16:52;;;;;;;25.05;13.60;;;;;;;;;;4967236;28;20031;-67
2021/12/03 22:19:18;;;;;;;17.80;11.43;;;;;;;;;;4970325;28;20031;-65
2021/12/03 22:21:44;;;;;;;12.35;8.43;;;;;;;;;;4973043;28;20027;-67
2021/12/03 22:24:09;;;;;;;12.77;8.38;;;;;;;;;;4973261;28;20041;-66
2021/12/03 22:26:35;;;;;;;12.52;7.95;;;;;;;;;;4972421;28;20078;-67
2021/12/03 22:29:01;;;;;;;12.82;7.75;;;;;;;;;;4973527;28;20037;-68
2021/12/03 22:31:27;;;;;;;17.90;9.73;;;;;;;;;;4997113;28;20102;-66
2021/12/03 22:33:52;;;;;;;15.25;8.63;;;;;;;;;;4970128;28;20039;-67
2021/12/03 22:36:19;;;;;;;11.15;7.82;;;;;;;;;;4969515;28;20030;-68
2021/12/03 22:38:45;;;;;;;12.68;6.60;;;;;;;;;;4952225;28;20073;-68
2021/12/03 22:41:14;;;;;;;12.73;7.55;;;;;;;;;;4951863;28;20319;-68
2021/12/03 22:43:42;;;;;;;10.00;6.85;;;;;;;;;;4951373;29;20110;-67
2021/12/03 22:48:39;;;;;;;7.95;4.32;;;;;;;;;;4971479;28;20030;-66
2021/12/03 22:53:45;;;;;;;8.77;3.65;;;;;;;;;;4970586;28;20448;-66
2021/12/03 22:56:11;;;;;;;8.02;4.05;;;;;;;;;;4953717;28;20062;-71
2021/12/03 22:58:37;;;;;;;10.25;4.38;;;;;;;;;;4952912;28;20437;-68
2021/12/03 23:01:05;;;;;;;9.55;4.72;;;;;;;;;;4953565;28;20039;-67
2021/12/03 23:03:35;;;;;;;9.02;4.15;;;;;;;;;;4953079;28;20035;-68
2021/12/03 23:06:03;;;;;;;8.82;4.63;;;;;;;;;;4953027;28;20386;-68
2021/12/03 23:08:30;;;;;;;6.70;4.75;;;;;;;;;;4954173;28;20526;-67
2021/12/03 23:10:57;;;;;;;9.32;5.25;;;;;;;;;;4952616;28;20031;-68
2021/12/03 23:13:25;;;;;;;11.52;6.18;;;;;;;;;;4952733;28;20057;-68
2021/12/03 23:15:52;;;;;;;11.68;5.70;;;;;;;;;;4968836;28;20042;-65
2021/12/03 23:18:18;;;;;;;9.50;4.97;;;;;;;;;;4953905;28;20030;-71
2021/12/03 23:20:45;;;;;;;7.43;4.60;;;;;;;;;;4953218;28;20513;-68